createdAt,value
2022-09-16T00:03:00.003Z,972.81
2022-09-16T00:08:31.582Z,972.89
2022-09-16T00:14:03.407Z,972.88
2022-09-16T00:19:35.058Z,972.82
2022-09-16T00:25:06.800Z,972.88
2022-09-16T00:30:38.438Z,972.9
2022-09-16T00:36:10.206Z,972.83
2022-09-16T00:41:41.958Z,972.64
2022-09-16T00:47:18.140Z,972.76
2022-09-16T00:52:49.887Z,972.82
2022-09-16T00:58:21.519Z,972.84
2022-09-16T01:03:53.268Z,972.89
2022-09-16T01:09:25.139Z,972.95
2022-09-16T01:14:56.670Z,973.01
2022-09-16T01:20:28.338Z,972.96
2022-09-16T01:26:00.103Z,972.81
2022-09-16T01:31:32.081Z,972.63
2022-09-16T01:37:03.630Z,972.8
2022-09-16T01:42:35.246Z,972.69
2022-09-16T01:48:13.303Z,972.61
2022-09-16T01:53:45.246Z,972.6
2022-09-16T01:59:16.918Z,972.42
2022-09-16T02:04:48.490Z,972.45
2022-09-16T02:10:20.191Z,972.33
2022-09-16T02:15:52.109Z,971.98
2022-09-16T02:21:23.689Z,971.93
2022-09-16T02:26:55.358Z,972.0
2022-09-16T02:32:27.076Z,971.93
2022-09-16T02:37:58.911Z,971.92
2022-09-16T02:43:30.650Z,972.01
2022-09-16T02:49:06.726Z,971.83
2022-09-16T02:54:38.534Z,971.78
2022-09-16T03:00:10.193Z,971.71
2022-09-16T03:05:41.895Z,971.82
2022-09-16T03:11:13.649Z,971.8
2022-09-16T03:16:46.824Z,971.77
2022-09-16T03:22:17.014Z,971.9
2022-09-16T03:27:48.853Z,971.92
2022-09-16T03:33:20.449Z,972.14
2022-09-16T03:38:52.221Z,971.99
2022-09-16T03:44:23.947Z,972.06
2022-09-16T03:50:02.084Z,972.16
2022-09-16T03:55:33.837Z,972.15
2022-09-16T04:01:05.673Z,972.14
2022-09-16T04:06:37.100Z,972.25
2022-09-16T04:12:08.970Z,972.17
2022-09-16T04:17:40.630Z,972.17
2022-09-16T04:23:12.433Z,972.1
2022-09-16T04:28:44.145Z,972.06
2022-09-16T04:34:15.829Z,972.03
2022-09-16T04:39:47.867Z,972.0
2022-09-16T04:45:19.349Z,972.05
2022-09-16T04:50:55.437Z,972.02
2022-09-16T04:56:27.120Z,972.11
2022-09-16T05:01:59.049Z,972.01
2022-09-16T05:07:30.510Z,972.17
2022-09-16T05:13:02.270Z,972.08
2022-09-16T05:18:33.982Z,972.0
2022-09-16T05:24:05.744Z,972.0
2022-09-16T05:29:37.509Z,971.85
2022-09-16T05:35:09.273Z,971.92
2022-09-16T05:40:40.856Z,971.97
2022-09-16T05:46:12.880Z,972.01
2022-09-16T05:51:48.733Z,972.17
2022-09-16T05:57:20.431Z,972.21
2022-09-16T06:02:52.394Z,972.04
2022-09-16T06:08:23.977Z,972.28
2022-09-16T06:13:55.653Z,972.26
2022-09-16T06:19:27.405Z,972.4
2022-09-16T06:24:59.080Z,972.38
2022-09-16T06:30:32.155Z,972.19
2022-09-16T06:36:02.673Z,972.39
2022-09-16T06:41:34.390Z,972.3
2022-09-16T06:47:05.982Z,972.12
2022-09-16T06:52:42.166Z,971.71
2022-09-16T06:58:13.780Z,971.53
2022-09-16T07:03:45.505Z,971.84
2022-09-16T07:09:17.273Z,971.65
2022-09-16T07:14:49.016Z,972.42
2022-09-16T07:20:20.768Z,972.07
2022-09-16T07:25:52.478Z,971.7
2022-09-16T07:31:24.528Z,972.46
2022-09-16T07:36:55.904Z,972.76
2022-09-16T07:42:27.610Z,972.53
2022-09-16T07:47:59.489Z,972.75
2022-09-16T07:53:35.544Z,973.03
2022-09-16T07:59:07.250Z,973.02
2022-09-16T08:04:38.986Z,972.76
2022-09-16T08:10:11.035Z,973.03
2022-09-16T08:15:42.406Z,972.94
2022-09-16T08:21:14.078Z,973.47
2022-09-16T08:26:45.982Z,973.61
2022-09-16T08:32:17.827Z,973.69
2022-09-16T08:37:50.925Z,973.96
2022-09-16T08:43:21.042Z,973.68
2022-09-16T08:48:52.769Z,973.72
2022-09-16T08:54:30.795Z,974.05
2022-09-16T09:00:02.600Z,974.14
2022-09-16T09:05:34.237Z,974.05
2022-09-16T09:11:06.020Z,974.09
2022-09-16T09:16:37.842Z,974.0
2022-09-16T09:22:09.509Z,974.15
2022-09-16T09:27:41.192Z,974.11
2022-09-16T09:33:47.452Z,974.1
2022-09-16T09:38:44.868Z,974.08
2022-09-16T09:44:16.372Z,974.33
2022-09-16T09:49:48.093Z,973.96
2022-09-16T09:55:24.219Z,973.99
2022-09-16T10:00:56.120Z,974.15
2022-09-16T10:06:28.015Z,974.28
2022-09-16T10:11:59.440Z,974.3
2022-09-16T10:17:31.339Z,974.45
2022-09-16T10:23:02.845Z,974.06
2022-09-16T10:28:34.662Z,973.83
2022-09-16T10:34:06.496Z,974.11
2022-09-16T10:39:38.075Z,973.76
2022-09-16T10:45:09.763Z,973.86
2022-09-16T10:50:41.527Z,974.06
2022-09-16T10:56:19.650Z,974.07
2022-09-16T11:01:52.381Z,973.99
2022-09-16T11:07:23.115Z,974.17
2022-09-16T11:12:54.843Z,973.92
2022-09-16T11:18:26.518Z,973.85
2022-09-16T11:23:58.377Z,973.83
2022-09-16T11:29:30.000Z,973.68
2022-09-16T11:35:01.624Z,973.7
2022-09-16T11:40:33.544Z,973.77
2022-09-16T11:46:05.279Z,973.96
2022-09-16T11:51:37.015Z,974.17
2022-09-16T11:57:15.804Z,974.3
2022-09-16T12:02:44.983Z,974.46
2022-09-16T12:08:16.431Z,974.27
2022-09-16T12:13:48.139Z,974.28
2022-09-16T12:19:19.845Z,974.47
2022-09-16T12:24:51.529Z,975.04
2022-09-16T12:30:23.337Z,974.89
2022-09-16T12:35:55.179Z,974.93
2022-09-16T12:41:26.880Z,974.46
2022-09-16T12:46:58.569Z,974.18
2022-09-16T12:52:30.194Z,973.42
2022-09-16T12:58:10.490Z,973.39
2022-09-16T13:03:42.158Z,973.56
2022-09-16T13:09:13.805Z,973.8
2022-09-16T13:14:45.524Z,973.95
2022-09-16T13:20:17.396Z,974.0
2022-09-16T13:25:48.997Z,973.78
2022-09-16T13:31:20.875Z,973.01
2022-09-16T13:36:52.715Z,973.56
2022-09-16T13:42:24.173Z,972.91
2022-09-16T13:47:55.920Z,972.61
2022-09-16T13:53:27.657Z,972.6
2022-09-16T13:59:05.793Z,972.43
2022-09-16T14:04:37.489Z,971.75
2022-09-16T14:10:09.217Z,972.17
2022-09-16T14:15:41.288Z,971.92
2022-09-16T14:21:12.642Z,972.48
2022-09-16T14:26:44.361Z,972.57
2022-09-16T14:32:16.178Z,972.32
2022-09-16T14:37:47.785Z,972.24
2022-09-16T14:43:19.507Z,972.67
2022-09-16T14:48:51.260Z,972.15
2022-09-16T14:54:23.037Z,971.92
2022-09-16T15:00:01.146Z,971.53
2022-09-16T15:05:32.817Z,971.88
2022-09-16T15:11:04.521Z,971.67
2022-09-16T15:16:36.281Z,971.43
2022-09-16T15:22:07.985Z,971.68
2022-09-16T15:27:39.729Z,971.48
2022-09-16T15:33:11.425Z,971.42
2022-09-16T15:38:45.417Z,971.12
2022-09-16T15:44:14.762Z,971.33
2022-09-16T15:49:46.650Z,971.62
2022-09-16T15:55:18.366Z,971.22
2022-09-16T16:00:54.668Z,970.9
2022-09-16T16:06:26.127Z,970.77
2022-09-16T16:11:58.051Z,971.03
2022-09-16T16:17:29.654Z,970.64
2022-09-16T16:23:01.496Z,971.17
2022-09-16T16:28:33.171Z,971.07
2022-09-16T16:34:04.865Z,971.07
2022-09-16T16:39:36.574Z,970.63
2022-09-16T16:45:08.383Z,970.47
2022-09-16T16:50:40.069Z,969.73
2022-09-16T16:56:16.199Z,970.27
2022-09-16T17:01:57.958Z,969.92
2022-09-16T17:07:29.656Z,968.95
2022-09-16T17:13:01.464Z,968.83
2022-09-16T17:18:32.990Z,969.35
2022-09-16T17:24:04.789Z,970.33
2022-09-16T17:29:36.520Z,969.77
2022-09-16T17:35:08.188Z,970.83
2022-09-16T17:40:40.094Z,970.95
2022-09-16T17:46:11.964Z,971.1
2022-09-16T17:51:43.493Z,971.24
2022-09-16T17:57:15.122Z,971.23
2022-09-16T18:02:51.627Z,971.3
2022-09-16T18:08:23.211Z,971.16
2022-09-16T18:13:54.874Z,971.56
2022-09-16T18:19:26.385Z,971.42
2022-09-16T18:24:58.129Z,971.25
2022-09-16T18:30:30.116Z,971.64
2022-09-16T18:36:01.575Z,971.45
2022-09-16T18:41:33.328Z,971.73
2022-09-16T18:47:05.281Z,971.68
2022-09-16T18:52:36.642Z,971.92
2022-09-16T18:58:08.573Z,970.98
2022-09-16T19:03:44.578Z,971.1
2022-09-16T19:09:16.306Z,971.0
2022-09-16T19:14:48.054Z,970.46
2022-09-16T19:20:19.804Z,970.67
2022-09-16T19:25:51.465Z,970.85
2022-09-16T19:31:23.167Z,970.23
2022-09-16T19:36:54.926Z,970.07
2022-09-16T19:42:26.769Z,970.75
2022-09-16T19:47:58.331Z,970.75
2022-09-16T19:53:30.098Z,970.64
2022-09-16T19:59:01.854Z,970.53
2022-09-16T20:04:39.918Z,970.49
2022-09-16T20:10:11.621Z,970.26
2022-09-16T20:15:43.377Z,970.77
2022-09-16T20:21:15.324Z,971.12
2022-09-16T20:26:46.893Z,971.43
2022-09-16T20:32:18.493Z,971.58
2022-09-16T20:37:50.197Z,971.45
2022-09-16T20:43:21.962Z,971.46
2022-09-16T20:48:53.669Z,971.51
2022-09-16T20:54:25.367Z,971.53
2022-09-16T20:59:57.118Z,971.28
2022-09-16T21:05:35.230Z,971.44
2022-09-16T21:11:06.933Z,971.55
2022-09-16T21:16:38.957Z,971.78
2022-09-16T21:22:10.552Z,971.62
2022-09-16T21:27:42.153Z,970.87
2022-09-16T21:33:13.838Z,971.48
2022-09-16T21:38:45.581Z,971.68
2022-09-16T21:44:17.482Z,971.24
2022-09-16T21:49:49.078Z,971.52
2022-09-16T21:55:20.785Z,971.43
2022-09-16T22:00:52.621Z,971.53
2022-09-16T22:06:28.518Z,971.69
2022-09-16T22:12:00.542Z,971.92
2022-09-16T22:17:32.201Z,971.58
2022-09-16T22:23:03.925Z,971.68
2022-09-16T22:28:35.646Z,971.52
2022-09-16T22:34:07.334Z,971.65
2022-09-16T22:39:39.089Z,971.6
2022-09-16T22:45:10.930Z,971.66
2022-09-16T22:50:42.521Z,971.29
2022-09-16T22:56:14.236Z,971.51
2022-09-16T23:01:46.322Z,971.48
2022-09-16T23:07:24.081Z,971.59
2022-09-16T23:12:55.871Z,971.56
2022-09-16T23:18:27.422Z,971.64
2022-09-16T23:23:59.207Z,971.53
2022-09-16T23:29:30.883Z,971.46
2022-09-16T23:35:02.638Z,971.47
2022-09-16T23:40:34.521Z,971.31
2022-09-16T23:46:06.306Z,971.19
2022-09-16T23:51:37.841Z,971.43
2022-09-16T23:57:09.578Z,971.47
